If you wish to contribute or participate in the discussions about articles you are invited to join SKYbrary as a registered user

 Actions

Zorg en Hoop Airport

From SKYbrary Wiki

SMZO
Airport
ICAO: SMZO – IATA: ORG
Summary
Name Zorg en Hoop Airport
Region South America and Caribbean
Territory Suriname SR.gif
Location Paramaribo, Paramaribo
Serving Paramaribo
Elevation 3.048 m
10 ft3.048 m
Coordinates 5° 48' 39.98" N, 55° 11' 26.86" W
Runways
Designator Length Width Surface ROPS


METAR
Observation SMZO 191800Z 09012KT 2000 +TSRA SCT012 FEW015CB SCT025 28/24 Q1009 BECMG AT1820 5000 TSRA
Station PARAMARIBO
Date/Time 19 November 2019 18:00:00
Wind direction 90°
Wind speed 12 kts
Lowest cloud amount scattered clouds
Temperature 28°C
Dew point 24°C
Humidity 78%
QNH 1009 hPa
Weather condition n/a

Zorg en Hoop Airport is an airport serving general aviation in the city of Paramaribo, Suriname.

Climatology

Tropical rainforest climate (Köppen climate classification Af)

Maps

Terrain

Loading map...

Airport Layout

Loading map...


Accidents & Serious Incidents at or in vicinity of SMZO

None on SKYbrary